sensor_id;sensor_type;location;lat;lon;timestamp;pressure;altitude;pressure_sealevel;temperature;humidity
61963;BME280;47927;42.646;23.096;2023-02-28T00:00:35;92513.69;;;8.50;62.31
61963;BME280;47927;42.646;23.096;2023-02-28T00:03:01;92510.78;;;8.71;61.79
61963;BME280;47927;42.646;23.096;2023-02-28T00:05:27;92510.34;;;8.84;60.93
61963;BME280;47927;42.646;23.096;2023-02-28T00:07:54;92514.94;;;8.91;60.47
61963;BME280;47927;42.646;23.096;2023-02-28T00:10:31;92516.34;;;8.69;60.37
61963;BME280;47927;42.646;23.096;2023-02-28T00:13:05;92518.28;;;8.40;61.38
61963;BME280;47927;42.646;23.096;2023-02-28T00:15:32;92512.25;;;8.36;61.18
61963;BME280;47927;42.646;23.096;2023-02-28T00:17:57;92529.56;;;8.32;61.03
61963;BME280;47927;42.646;23.096;2023-02-28T00:20:23;92525.41;;;8.28;61.11
61963;BME280;47927;42.646;23.096;2023-02-28T00:22:51;92527.66;;;8.29;60.92
61963;BME280;47927;42.646;23.096;2023-02-28T00:25:20;92526.97;;;8.16;60.35
61963;BME280;47927;42.646;23.096;2023-02-28T00:27:46;92527.97;;;7.96;60.58
61963;BME280;47927;42.646;23.096;2023-02-28T00:30:15;92524.78;;;7.87;60.64
61963;BME280;47927;42.646;23.096;2023-02-28T00:32:41;92527.59;;;7.82;60.78
61963;BME280;47927;42.646;23.096;2023-02-28T00:35:07;92515.44;;;7.54;61.18
61963;BME280;47927;42.646;23.096;2023-02-28T00:37:34;92530.66;;;7.56;61.39
61963;BME280;47927;42.646;23.096;2023-02-28T00:40:00;92525.19;;;7.45;61.29
61963;BME280;47927;42.646;23.096;2023-02-28T00:42:26;92534.31;;;7.26;61.86
61963;BME280;47927;42.646;23.096;2023-02-28T00:44:51;92522.16;;;7.15;62.33
61963;BME280;47927;42.646;23.096;2023-02-28T00:47:17;92521.03;;;7.28;61.85
61963;BME280;47927;42.646;23.096;2023-02-28T00:49:42;92524.34;;;7.41;60.74
61963;BME280;47927;42.646;23.096;2023-02-28T00:52:08;92520.19;;;7.24;61.40
61963;BME280;47927;42.646;23.096;2023-02-28T00:54:34;92514.22;;;6.95;62.70
61963;BME280;47927;42.646;23.096;2023-02-28T00:56:59;92514.22;;;6.83;63.44
61963;BME280;47927;42.646;23.096;2023-02-28T00:59:25;92509.28;;;6.90;62.29
61963;BME280;47927;42.646;23.096;2023-02-28T01:01:51;92520.41;;;7.19;61.92
61963;BME280;47927;42.646;23.096;2023-02-28T01:04:17;92514.00;;;7.28;60.60
61963;BME280;47927;42.646;23.096;2023-02-28T01:06:42;92516.53;;;6.60;63.33
61963;BME280;47927;42.646;23.096;2023-02-28T01:09:10;92515.56;;;6.40;64.34
61963;BME280;47927;42.646;23.096;2023-02-28T01:11:35;92508.22;;;6.67;63.41
61963;BME280;47927;42.646;23.096;2023-02-28T01:14:02;92513.81;;;6.93;62.62
61963;BME280;47927;42.646;23.096;2023-02-28T01:16:28;92513.94;;;7.13;60.93
61963;BME280;47927;42.646;23.096;2023-02-28T01:18:53;92512.63;;;7.19;60.75
61963;BME280;47927;42.646;23.096;2023-02-28T01:21:20;92515.31;;;7.22;60.50
61963;BME280;47927;42.646;23.096;2023-02-28T01:23:46;92510.78;;;7.19;60.71
61963;BME280;47927;42.646;23.096;2023-02-28T01:26:22;92509.91;;;7.27;60.83
61963;BME280;47927;42.646;23.096;2023-02-28T01:28:48;92510.13;;;7.22;59.68
61963;BME280;47927;42.646;23.096;2023-02-28T01:31:14;92483.13;;;6.43;61.85
61963;BME280;47927;42.646;23.096;2023-02-28T01:33:40;92515.94;;;6.91;61.03
61963;BME280;47927;42.646;23.096;2023-02-28T01:38:34;92522.94;;;7.03;59.64
61963;BME280;47927;42.646;23.096;2023-02-28T01:41:00;92517.94;;;6.70;61.33
61963;BME280;47927;42.646;23.096;2023-02-28T01:43:31;92525.66;;;6.94;61.15
61963;BME280;47927;42.646;23.096;2023-02-28T01:45:58;92507.09;;;6.92;59.95
61963;BME280;47927;42.646;23.096;2023-02-28T01:48:31;92525.72;;;7.10;59.87
61963;BME280;47927;42.646;23.096;2023-02-28T01:51:00;92522.72;;;7.08;60.12
61963;BME280;47927;42.646;23.096;2023-02-28T01:53:36;92516.31;;;7.18;59.99
61963;BME280;47927;42.646;23.096;2023-02-28T01:56:06;92511.97;;;7.22;59.88
61963;BME280;47927;42.646;23.096;2023-02-28T01:58:35;92514.66;;;7.38;59.96
61963;BME280;47927;42.646;23.096;2023-02-28T02:01:01;92502.56;;;7.29;59.96
61963;BME280;47927;42.646;23.096;2023-02-28T02:03:29;92520.19;;;7.52;59.30
61963;BME280;47927;42.646;23.096;2023-02-28T02:05:55;92520.31;;;7.43;59.61
61963;BME280;47927;42.646;23.096;2023-02-28T02:08:23;92525.28;;;7.48;60.12
61963;BME280;47927;42.646;23.096;2023-02-28T02:11:01;92502.66;;;7.33;60.27
61963;BME280;47927;42.646;23.096;2023-02-28T02:16:46;92530.03;;;7.46;60.57
61963;BME280;47927;42.646;23.096;2023-02-28T02:25:32;92535.22;;;7.46;60.48
61963;BME280;47927;42.646;23.096;2023-02-28T02:36:30;92532.34;;;7.36;61.51
61963;BME280;47927;42.646;23.096;2023-02-28T02:39:02;92533.84;;;7.37;62.33
61963;BME280;47927;42.646;23.096;2023-02-28T02:41:38;92541.03;;;7.56;61.79
61963;BME280;47927;42.646;23.096;2023-02-28T02:44:30;92546.47;;;7.66;61.79
61963;BME280;47927;42.646;23.096;2023-02-28T02:47:08;92533.28;;;7.71;61.70
61963;BME280;47927;42.646;23.096;2023-02-28T02:49:36;92534.38;;;7.70;61.88
61963;BME280;47927;42.646;23.096;2023-02-28T02:52:07;92538.25;;;7.76;61.43
61963;BME280;47927;42.646;23.096;2023-02-28T02:54:39;92531.78;;;7.70;61.18
61963;BME280;47927;42.646;23.096;2023-02-28T02:57:33;92548.56;;;7.89;61.01
61963;BME280;47927;42.646;23.096;2023-02-28T03:00:04;92537.81;;;7.90;60.71
61963;BME280;47927;42.646;23.096;2023-02-28T03:02:34;92540.50;;;7.94;60.47
61963;BME280;47927;42.646;23.096;2023-02-28T03:05:05;92542.88;;;7.99;60.32
61963;BME280;47927;42.646;23.096;2023-02-28T03:07:32;92542.88;;;7.99;60.42
61963;BME280;47927;42.646;23.096;2023-02-28T03:09:57;92535.94;;;8.03;60.43
61963;BME280;47927;42.646;23.096;2023-02-28T03:12:40;92539.78;;;8.09;60.13
61963;BME280;47927;42.646;23.096;2023-02-28T03:20:07;92545.22;;;8.20;60.20
61963;BME280;47927;42.646;23.096;2023-02-28T03:31:21;92563.38;;;7.60;61.75
61963;BME280;47927;42.646;23.096;2023-02-28T03:33:53;92556.69;;;7.59;61.61
61963;BME280;47927;42.646;23.096;2023-02-28T03:36:27;92557.09;;;7.61;61.08
61963;BME280;47927;42.646;23.096;2023-02-28T03:39:16;92565.16;;;7.72;61.10
61963;BME280;47927;42.646;23.096;2023-02-28T03:41:47;92558.72;;;7.82;60.73
61963;BME280;47927;42.646;23.096;2023-02-28T03:44:42;92561.53;;;7.89;60.60
61963;BME280;47927;42.646;23.096;2023-02-28T03:47:16;92572.38;;;7.79;59.74
61963;BME280;47927;42.646;23.096;2023-02-28T03:49:48;92568.13;;;7.58;60.43
61963;BME280;47927;42.646;23.096;2023-02-28T03:52:17;92568.03;;;7.54;60.50
61963;BME280;47927;42.646;23.096;2023-02-28T03:54:48;92571.91;;;7.61;60.30
61963;BME280;47927;42.646;23.096;2023-02-28T03:59:59;92569.44;;;7.52;59.89
61963;BME280;47927;42.646;23.096;2023-02-28T04:02:37;92569.97;;;7.58;59.93
61963;BME280;47927;42.646;23.096;2023-02-28T04:05:05;92570.22;;;7.52;59.94
61963;BME280;47927;42.646;23.096;2023-02-28T04:07:31;92568.03;;;7.54;59.96
61963;BME280;47927;42.646;23.096;2023-02-28T04:09:57;92565.78;;;7.53;59.54
61963;BME280;47927;42.646;23.096;2023-02-28T04:12:23;92569.81;;;7.38;59.33
61963;BME280;47927;42.646;23.096;2023-02-28T04:14:49;92560.22;;;7.39;59.40
61963;BME280;47927;42.646;23.096;2023-02-28T04:17:15;92561.28;;;7.38;59.36
61963;BME280;47927;42.646;23.096;2023-02-28T04:19:41;92564.56;;;7.22;59.18
61963;BME280;47927;42.646;23.096;2023-02-28T04:22:08;92565.22;;;7.19;59.43
61963;BME280;47927;42.646;23.096;2023-02-28T04:24:34;92551.63;;;7.10;59.08
61963;BME280;47927;42.646;23.096;2023-02-28T04:27:00;92571.28;;;7.11;59.25
61963;BME280;47927;42.646;23.096;2023-02-28T04:29:28;92571.50;;;7.06;58.94
61963;BME280;47927;42.646;23.096;2023-02-28T04:31:55;92573.25;;;6.90;59.40
61963;BME280;47927;42.646;23.096;2023-02-28T04:34:23;92572.09;;;6.87;59.71
61963;BME280;47927;42.646;23.096;2023-02-28T04:36:50;92568.72;;;6.87;59.20
61963;BME280;47927;42.646;23.096;2023-02-28T04:39:16;92559.03;;;6.71;59.12
61963;BME280;47927;42.646;23.096;2023-02-28T04:41:47;92582.56;;;6.78;59.58
61963;BME280;47927;42.646;23.096;2023-02-28T04:44:13;92582.56;;;6.78;60.12
61963;BME280;47927;42.646;23.096;2023-02-28T04:46:38;92578.22;;;6.82;60.07
61963;BME280;47927;42.646;23.096;2023-02-28T04:49:04;92577.38;;;6.78;59.82
61963;BME280;47927;42.646;23.096;2023-02-28T04:51:29;92586.66;;;6.79;59.98
61963;BME280;47927;42.646;23.096;2023-02-28T04:53:55;92593.97;;;6.90;60.11
61963;BME280;47927;42.646;23.096;2023-02-28T04:56:21;92600.22;;;7.01;59.69
61963;BME280;47927;42.646;23.096;2023-02-28T04:58:47;92597.19;;;6.99;59.50
61963;BME280;47927;42.646;23.096;2023-02-28T05:03:45;92599.13;;;7.02;59.56
61963;BME280;47927;42.646;23.096;2023-02-28T05:06:12;92597.75;;;6.92;59.88
61963;BME280;47927;42.646;23.096;2023-02-28T05:08:38;92602.28;;;6.83;59.83
61963;BME280;47927;42.646;23.096;2023-02-28T05:11:05;92584.81;;;6.68;60.62
61963;BME280;47927;42.646;23.096;2023-02-28T05:13:31;92607.69;;;6.90;60.70
61963;BME280;47927;42.646;23.096;2023-02-28T05:15:57;92601.97;;;6.84;61.15
61963;BME280;47927;42.646;23.096;2023-02-28T05:18:22;92604.00;;;7.03;61.20
61963;BME280;47927;42.646;23.096;2023-02-28T05:20:48;92588.34;;;7.00;61.27
61963;BME280;47927;42.646;23.096;2023-02-28T05:23:22;92610.34;;;7.18;60.92
61963;BME280;47927;42.646;23.096;2023-02-28T05:25:48;92612.81;;;7.27;61.22
61963;BME280;47927;42.646;23.096;2023-02-28T05:28:14;92613.97;;;7.42;60.82
61963;BME280;47927;42.646;23.096;2023-02-28T05:30:40;92614.16;;;7.49;60.83
61963;BME280;47927;42.646;23.096;2023-02-28T05:33:05;92608.78;;;7.42;60.79
61963;BME280;47927;42.646;23.096;2023-02-28T05:35:31;92619.13;;;7.54;60.32
61963;BME280;47927;42.646;23.096;2023-02-28T05:37:57;92621.50;;;7.59;60.13
61963;BME280;47927;42.646;23.096;2023-02-28T05:40:22;92621.13;;;7.73;60.08
61963;BME280;47927;42.646;23.096;2023-02-28T05:42:50;92614.88;;;7.74;60.03
61963;BME280;47927;42.646;23.096;2023-02-28T05:45:16;92613.47;;;7.76;60.07
61963;BME280;47927;42.646;23.096;2023-02-28T05:47:42;92630.38;;;7.86;59.86
61963;BME280;47927;42.646;23.096;2023-02-28T05:50:08;92629.38;;;7.91;60.34
61963;BME280;47927;42.646;23.096;2023-02-28T05:52:36;92636.69;;;8.01;60.03
61963;BME280;47927;42.646;23.096;2023-02-28T05:55:01;92642.72;;;8.05;60.14
61963;BME280;47927;42.646;23.096;2023-02-28T05:57:27;92637.69;;;8.25;60.32
61963;BME280;47927;42.646;23.096;2023-02-28T05:59:53;92636.25;;;8.27;60.37
61963;BME280;47927;42.646;23.096;2023-02-28T06:02:18;92638.72;;;8.36;60.49
61963;BME280;47927;42.646;23.096;2023-02-28T06:04:44;92643.00;;;8.44;60.27
61963;BME280;47927;42.646;23.096;2023-02-28T06:07:10;92645.78;;;8.51;59.88
61963;BME280;47927;42.646;23.096;2023-02-28T06:09:36;92645.94;;;8.58;60.11
61963;BME280;47927;42.646;23.096;2023-02-28T06:12:02;92646.78;;;8.62;60.39
61963;BME280;47927;42.646;23.096;2023-02-28T06:14:31;92642.34;;;8.79;59.66
61963;BME280;47927;42.646;23.096;2023-02-28T06:16:58;92651.41;;;8.69;60.09
61963;BME280;47927;42.646;23.096;2023-02-28T06:19:24;92647.56;;;8.35;60.13
61963;BME280;47927;42.646;23.096;2023-02-28T06:21:54;92647.53;;;8.47;59.62
61963;BME280;47927;42.646;23.096;2023-02-28T06:24:21;92651.56;;;8.60;59.78
61963;BME280;47927;42.646;23.096;2023-02-28T06:26:46;92654.34;;;8.67;59.49
61963;BME280;47927;42.646;23.096;2023-02-28T06:29:12;92657.19;;;8.78;60.07
61963;BME280;47927;42.646;23.096;2023-02-28T06:31:41;92664.31;;;8.97;59.35
61963;BME280;47927;42.646;23.096;2023-02-28T06:34:07;92664.72;;;9.15;59.01
61963;BME280;47927;42.646;23.096;2023-02-28T06:36:32;92662.69;;;9.40;59.57
61963;BME280;47927;42.646;23.096;2023-02-28T06:38:58;92657.44;;;9.75;59.43
61963;BME280;47927;42.646;23.096;2023-02-28T06:41:25;92659.66;;;10.12;59.20
61963;BME280;47927;42.646;23.096;2023-02-28T06:43:51;92657.25;;;10.42;58.70
61963;BME280;47927;42.646;23.096;2023-02-28T06:46:18;92663.25;;;10.46;58.73
61963;BME280;47927;42.646;23.096;2023-02-28T06:48:44;92661.59;;;10.58;58.28
61963;BME280;47927;42.646;23.096;2023-02-28T06:51:13;92668.88;;;10.68;58.55
61963;BME280;47927;42.646;23.096;2023-02-28T06:53:39;92665.16;;;10.69;58.15
61963;BME280;47927;42.646;23.096;2023-02-28T06:56:07;92672.00;;;10.77;58.88
61963;BME280;47927;42.646;23.096;2023-02-28T06:58:34;92669.06;;;10.82;56.96
61963;BME280;47927;42.646;23.096;2023-02-28T09:49:02;92676.03;;;11.77;59.58
61963;BME280;47927;42.646;23.096;2023-02-28T09:54:13;92674.38;;;12.22;57.95
61963;BME280;47927;42.646;23.096;2023-02-28T09:56:51;92667.50;;;12.07;58.33
61963;BME280;47927;42.646;23.096;2023-02-28T09:59:36;92664.69;;;11.93;58.68
61963;BME280;47927;42.646;23.096;2023-02-28T10:09:59;92659.25;;;12.39;57.12
61963;BME280;47927;42.646;23.096;2023-02-28T10:12:46;92648.03;;;12.75;56.49
61963;BME280;47927;42.646;23.096;2023-02-28T10:15:16;92641.44;;;12.48;56.82
61963;BME280;47927;42.646;23.096;2023-02-28T10:17:45;92652.16;;;12.76;56.02
61963;BME280;47927;42.646;23.096;2023-02-28T10:20:14;92649.44;;;12.66;56.12
61963;BME280;47927;42.646;23.096;2023-02-28T10:25:37;92656.66;;;13.24;55.68
61963;BME280;47927;42.646;23.096;2023-02-28T10:28:14;92635.06;;;12.86;55.88
61963;BME280;47927;42.646;23.096;2023-02-28T10:30:43;92639.13;;;13.28;55.96
61963;BME280;47927;42.646;23.096;2023-02-28T10:33:36;92638.59;;;13.63;54.97
61963;BME280;47927;42.646;23.096;2023-02-28T10:36:03;92633.03;;;13.76;54.86
61963;BME280;47927;42.646;23.096;2023-02-28T10:38:37;92632.69;;;13.77;54.37
61963;BME280;47927;42.646;23.096;2023-02-28T10:41:29;92636.13;;;13.99;54.34
61963;BME280;47927;42.646;23.096;2023-02-28T10:44:14;92626.69;;;13.77;54.54
61963;BME280;47927;42.646;23.096;2023-02-28T10:46:41;92623.31;;;13.76;54.90
61963;BME280;47927;42.646;23.096;2023-02-28T10:49:22;92617.19;;;13.47;55.21
61963;BME280;47927;42.646;23.096;2023-02-28T10:51:54;92614.16;;;14.32;53.77
61963;BME280;47927;42.646;23.096;2023-02-28T10:54:27;92621.47;;;13.80;54.08
61963;BME280;47927;42.646;23.096;2023-02-28T10:57:18;92616.53;;;13.68;54.97
61963;BME280;47927;42.646;23.096;2023-02-28T10:59:45;92604.69;;;13.99;53.00
61963;BME280;47927;42.646;23.096;2023-02-28T11:02:35;92605.09;;;14.05;53.92
61963;BME280;47927;42.646;23.096;2023-02-28T11:05:23;92602.19;;;14.28;54.07
61963;BME280;47927;42.646;23.096;2023-02-28T13:31:14;92499.38;;;12.22;57.64
61963;BME280;47927;42.646;23.096;2023-02-28T13:38:46;92499.63;;;11.39;59.91
61963;BME280;47927;42.646;23.096;2023-02-28T13:44:13;92491.38;;;11.33;60.37
61963;BME280;47927;42.646;23.096;2023-02-28T13:51:50;92474.31;;;11.39;60.05
61963;BME280;47927;42.646;23.096;2023-02-28T14:07:28;92467.69;;;10.85;61.47
61963;BME280;47927;42.646;23.096;2023-02-28T14:10:05;92486.38;;;11.51;59.10
61963;BME280;47927;42.646;23.096;2023-02-28T14:12:52;92482.44;;;10.74;61.32
61963;BME280;47927;42.646;23.096;2023-02-28T14:17:56;92476.97;;;10.83;60.34
61963;BME280;47927;42.646;23.096;2023-02-28T14:20:29;92476.44;;;11.00;60.30
61963;BME280;47927;42.646;23.096;2023-02-28T14:25:44;92486.06;;;10.20;61.41
61963;BME280;47927;42.646;23.096;2023-02-28T14:36:42;92498.88;;;10.06;62.21
61963;BME280;47927;42.646;23.096;2023-02-28T14:39:15;92491.47;;;10.08;61.75
61963;BME280;47927;42.646;23.096;2023-02-28T14:41:45;92478.84;;;9.87;61.63
61963;BME280;47927;42.646;23.096;2023-02-28T14:46:56;92477.97;;;10.48;59.88
61963;BME280;47927;42.646;23.096;2023-02-28T14:54:41;92474.97;;;9.77;61.21
61963;BME280;47927;42.646;23.096;2023-02-28T14:57:27;92460.97;;;10.08;60.74
61963;BME280;47927;42.646;23.096;2023-02-28T14:59:58;92471.91;;;9.94;61.39
61963;BME280;47927;42.646;23.096;2023-02-28T15:02:25;92477.78;;;9.88;61.85
61963;BME280;47927;42.646;23.096;2023-02-28T15:05:00;92461.28;;;10.03;60.77
61963;BME280;47927;42.646;23.096;2023-02-28T15:07:48;92474.81;;;9.89;60.93
61963;BME280;47927;42.646;23.096;2023-02-28T15:10:26;92490.97;;;9.36;62.78
61963;BME280;47927;42.646;23.096;2023-02-28T15:12:57;92472.25;;;9.70;62.34
61963;BME280;47927;42.646;23.096;2023-02-28T15:15:51;92465.28;;;9.97;61.65
61963;BME280;47927;42.646;23.096;2023-02-28T15:20:49;92470.94;;;9.79;62.21
61963;BME280;47927;42.646;23.096;2023-02-28T15:23:16;92477.56;;;9.77;62.49
61963;BME280;47927;42.646;23.096;2023-02-28T15:25:43;92472.13;;;9.63;62.53
61963;BME280;47927;42.646;23.096;2023-02-28T15:28:13;92465.91;;;9.67;63.13
61963;BME280;47927;42.646;23.096;2023-02-28T15:30:51;92485.19;;;9.66;62.53
61963;BME280;47927;42.646;23.096;2023-02-28T15:33:22;92486.34;;;9.69;61.97
61963;BME280;47927;42.646;23.096;2023-02-28T15:35:49;92491.66;;;9.53;63.26
61963;BME280;47927;42.646;23.096;2023-02-28T15:38:26;92478.75;;;9.60;62.75
61963;BME280;47927;42.646;23.096;2023-02-28T15:40:57;92480.13;;;9.73;62.82
61963;BME280;47927;42.646;23.096;2023-02-28T15:46:04;92484.75;;;10.07;61.22
61963;BME280;47927;42.646;23.096;2023-02-28T15:48:36;92486.84;;;9.97;61.69
61963;BME280;47927;42.646;23.096;2023-02-28T15:51:07;92485.13;;;10.28;60.78
61963;BME280;47927;42.646;23.096;2023-02-28T15:53:57;92492.22;;;10.31;60.95
61963;BME280;47927;42.646;23.096;2023-02-28T15:56:29;92483.31;;;9.05;64.66
61963;BME280;47927;42.646;23.096;2023-02-28T15:58:57;92501.63;;;8.57;67.24
61963;BME280;47927;42.646;23.096;2023-02-28T16:01:29;92500.88;;;8.41;67.66
61963;BME280;47927;42.646;23.096;2023-02-28T16:03:59;92507.38;;;9.02;65.74
61963;BME280;47927;42.646;23.096;2023-02-28T16:06:32;92499.66;;;8.70;66.68
61963;BME280;47927;42.646;23.096;2023-02-28T16:08:58;92505.81;;;9.17;65.34
61963;BME280;47927;42.646;23.096;2023-02-28T16:11:24;92500.72;;;8.85;66.25
61963;BME280;47927;42.646;23.096;2023-02-28T16:13:51;92506.56;;;8.31;68.49
61963;BME280;47927;42.646;23.096;2023-02-28T16:16:18;92513.53;;;8.94;66.76
61963;BME280;47927;42.646;23.096;2023-02-28T16:18:44;92526.81;;;9.08;65.87
61963;BME280;47927;42.646;23.096;2023-02-28T16:21:10;92520.69;;;9.00;65.70
61963;BME280;47927;42.646;23.096;2023-02-28T16:23:36;92532.16;;;9.34;65.31
61963;BME280;47927;42.646;23.096;2023-02-28T16:26:03;92539.00;;;8.88;66.70
61963;BME280;47927;42.646;23.096;2023-02-28T16:28:31;92548.50;;;9.16;66.04
61963;BME280;47927;42.646;23.096;2023-02-28T16:31:03;92554.78;;;8.79;67.31
61963;BME280;47927;42.646;23.096;2023-02-28T16:33:33;92554.81;;;9.53;65.14
61963;BME280;47927;42.646;23.096;2023-02-28T16:35:59;92558.03;;;9.47;64.46
61963;BME280;47927;42.646;23.096;2023-02-28T16:38:25;92562.34;;;8.69;67.62
61963;BME280;47927;42.646;23.096;2023-02-28T16:40:53;92560.41;;;8.65;68.00
61963;BME280;47927;42.646;23.096;2023-02-28T16:43:23;92557.56;;;8.71;67.86
61963;BME280;47927;42.646;23.096;2023-02-28T16:45:55;92555.97;;;9.17;66.32
61963;BME280;47927;42.646;23.096;2023-02-28T16:48:21;92555.41;;;9.08;66.49
61963;BME280;47927;42.646;23.096;2023-02-28T16:50:47;92549.50;;;8.28;69.41
61963;BME280;47927;42.646;23.096;2023-02-28T16:53:13;92559.09;;;8.40;69.28
61963;BME280;47927;42.646;23.096;2023-02-28T16:55:39;92570.50;;;8.07;70.77
61963;BME280;47927;42.646;23.096;2023-02-28T16:58:04;92557.81;;;8.34;69.51
61963;BME280;47927;42.646;23.096;2023-02-28T17:00:31;92562.03;;;7.94;71.69
61963;BME280;47927;42.646;23.096;2023-02-28T17:02:57;92557.94;;;7.65;72.94
61963;BME280;47927;42.646;23.096;2023-02-28T17:05:24;92551.78;;;7.42;73.19
61963;BME280;47927;42.646;23.096;2023-02-28T17:07:51;92573.88;;;6.99;75.73
61963;BME280;47927;42.646;23.096;2023-02-28T17:10:20;92568.25;;;7.49;74.07
61963;BME280;47927;42.646;23.096;2023-02-28T17:12:46;92558.66;;;7.50;73.66
61963;BME280;47927;42.646;23.096;2023-02-28T17:15:13;92576.16;;;7.00;74.86
61963;BME280;47927;42.646;23.096;2023-02-28T17:17:40;92554.69;;;7.00;75.90
61963;BME280;47927;42.646;23.096;2023-02-28T17:20:07;92548.66;;;7.64;73.19
61963;BME280;47927;42.646;23.096;2023-02-28T17:22:36;92554.75;;;7.16;74.18
61963;BME280;47927;42.646;23.096;2023-02-28T17:25:01;92556.84;;;7.66;72.36
61963;BME280;47927;42.646;23.096;2023-02-28T17:27:27;92563.13;;;7.65;72.39
61963;BME280;47927;42.646;23.096;2023-02-28T17:29:52;92552.69;;;7.49;72.41
61963;BME280;47927;42.646;23.096;2023-02-28T17:32:18;92543.59;;;7.27;73.71
61963;BME280;47927;42.646;23.096;2023-02-28T17:34:44;92548.81;;;7.15;74.65
61963;BME280;47927;42.646;23.096;2023-02-28T17:37:11;92538.38;;;7.40;73.62
61963;BME280;47927;42.646;23.096;2023-02-28T17:39:36;92533.72;;;7.45;73.25
61963;BME280;47927;42.646;23.096;2023-02-28T17:42:02;92529.63;;;7.04;74.46
61963;BME280;47927;42.646;23.096;2023-02-28T17:44:28;92538.09;;;7.57;72.16
61963;BME280;47927;42.646;23.096;2023-02-28T17:46:54;92536.97;;;7.02;73.98
61963;BME280;47927;42.646;23.096;2023-02-28T17:49:20;92542.63;;;7.60;72.09
61963;BME280;47927;42.646;23.096;2023-02-28T17:51:47;92535.91;;;7.03;73.95
61963;BME280;47927;42.646;23.096;2023-02-28T17:54:12;92480.22;;;6.97;73.17
61963;BME280;47927;42.646;23.096;2023-02-28T17:56:39;92535.25;;;7.34;72.56
61963;BME280;47927;42.646;23.096;2023-02-28T17:59:05;92541.31;;;7.38;72.27
61963;BME280;47927;42.646;23.096;2023-02-28T18:01:31;92542.88;;;7.15;73.23
61963;BME280;47927;42.646;23.096;2023-02-28T18:03:56;92548.06;;;7.15;73.13
61963;BME280;47927;42.646;23.096;2023-02-28T18:06:28;92532.88;;;7.01;73.51
61963;BME280;47927;42.646;23.096;2023-02-28T18:08:56;92527.09;;;6.79;74.22
61963;BME280;47927;42.646;23.096;2023-02-28T18:11:22;92544.84;;;7.05;73.24
61963;BME280;47927;42.646;23.096;2023-02-28T18:13:51;92516.44;;;6.44;74.65
61963;BME280;47927;42.646;23.096;2023-02-28T18:16:18;92536.78;;;6.33;76.41
61963;BME280;47927;42.646;23.096;2023-02-28T18:18:44;92537.84;;;6.94;73.77
61963;BME280;47927;42.646;23.096;2023-02-28T18:21:12;92529.97;;;7.30;72.18
61963;BME280;47927;42.646;23.096;2023-02-28T18:23:39;92540.03;;;6.67;74.20
61963;BME280;47927;42.646;23.096;2023-02-28T18:26:13;92542.84;;;6.62;74.70
61963;BME280;47927;42.646;23.096;2023-02-28T18:28:39;92542.75;;;6.46;75.20
61963;BME280;47927;42.646;23.096;2023-02-28T18:31:07;92554.47;;;6.80;73.73
61963;BME280;47927;42.646;23.096;2023-02-28T18:33:34;92543.41;;;6.43;75.51
61963;BME280;47927;42.646;23.096;2023-02-28T18:36:00;92543.72;;;6.29;75.94
61963;BME280;47927;42.646;23.096;2023-02-28T18:38:26;92551.25;;;6.34;75.52
61963;BME280;47927;42.646;23.096;2023-02-28T18:40:56;92543.06;;;6.32;75.37
61963;BME280;47927;42.646;23.096;2023-02-28T18:43:21;92539.63;;;6.28;75.95
61963;BME280;47927;42.646;23.096;2023-02-28T18:45:47;92527.50;;;6.69;73.74
61963;BME280;47927;42.646;23.096;2023-02-28T18:48:13;92562.03;;;6.85;73.64
61963;BME280;47927;42.646;23.096;2023-02-28T18:50:39;92560.84;;;6.95;73.05
61963;BME280;47927;42.646;23.096;2023-02-28T18:53:06;92562.00;;;7.10;73.19
61963;BME280;47927;42.646;23.096;2023-02-28T18:55:32;92559.31;;;7.75;70.26
61963;BME280;47927;42.646;23.096;2023-02-28T18:57:59;92568.78;;;7.83;69.11
61963;BME280;47927;42.646;23.096;2023-02-28T19:00:24;92546.97;;;7.16;71.19
61963;BME280;47927;42.646;23.096;2023-02-28T19:02:51;92564.13;;;7.89;70.09
61963;BME280;47927;42.646;23.096;2023-02-28T19:05:17;92564.50;;;8.35;68.05
61963;BME280;47927;42.646;23.096;2023-02-28T19:07:43;92561.38;;;8.29;67.26
61963;BME280;47927;42.646;23.096;2023-02-28T19:10:10;92555.59;;;8.20;67.86
61963;BME280;47927;42.646;23.096;2023-02-28T19:12:36;92558.94;;;7.89;68.79
61963;BME280;47927;42.646;23.096;2023-02-28T19:15:04;92566.84;;;7.52;70.05
61963;BME280;47927;42.646;23.096;2023-02-28T19:17:30;92559.91;;;7.84;69.40
61963;BME280;47927;42.646;23.096;2023-02-28T19:19:56;92559.88;;;8.12;68.71
61963;BME280;47927;42.646;23.096;2023-02-28T19:22:22;92561.22;;;8.38;66.93
61963;BME280;47927;42.646;23.096;2023-02-28T19:24:51;92563.47;;;7.92;68.37
61963;BME280;47927;42.646;23.096;2023-02-28T19:27:17;92563.03;;;7.34;70.53
61963;BME280;47927;42.646;23.096;2023-02-28T19:29:50;92569.97;;;7.58;69.50
61963;BME280;47927;42.646;23.096;2023-02-28T19:32:18;92563.66;;;6.78;72.29
61963;BME280;47927;42.646;23.096;2023-02-28T19:34:44;92569.88;;;7.14;71.76
61963;BME280;47927;42.646;23.096;2023-02-28T19:37:10;92573.09;;;7.23;70.86
61963;BME280;47927;42.646;23.096;2023-02-28T19:39:36;92554.78;;;7.03;71.25
61963;BME280;47927;42.646;23.096;2023-02-28T19:42:16;92570.41;;;7.07;71.51
61963;BME280;47927;42.646;23.096;2023-02-28T19:44:42;92571.97;;;6.59;73.27
61963;BME280;47927;42.646;23.096;2023-02-28T19:47:08;92565.59;;;6.56;73.48
61963;BME280;47927;42.646;23.096;2023-02-28T19:49:34;92568.34;;;7.25;71.25
61963;BME280;47927;42.646;23.096;2023-02-28T19:51:59;92563.97;;;6.89;72.01
61963;BME280;47927;42.646;23.096;2023-02-28T19:54:26;92563.09;;;6.97;71.66
61963;BME280;47927;42.646;23.096;2023-02-28T19:56:52;92558.28;;;6.58;72.87
61963;BME280;47927;42.646;23.096;2023-02-28T19:59:24;92560.97;;;6.50;73.34
61963;BME280;47927;42.646;23.096;2023-02-28T20:01:50;92560.75;;;6.55;73.43
61963;BME280;47927;42.646;23.096;2023-02-28T20:04:21;92563.47;;;6.58;73.19